Time;durP1;ratioP1;P1;durP2;ratioP2;P2;SDS_P1;SDS_P2;PMS_P1;PMS_P2;Temp;Humidity;BMP_temperature;BMP_pressure;BME280_temperature;BME280_humidity;BME280_pressure;Samples;Min_cycle;Max_cycle;Signal;HPM_P1;HPM_P2
2022/05/08 00:02:17;;;;;;;;;;;23.10;45.00;;;;;;6176843;28;19964;-55
2022/05/08 00:05:19;;;;;;;;;;;22.90;44.80;;;;;;6173625;28;19929;-55
2022/05/08 00:08:20;;;;;;;;;;;22.80;44.80;;;;;;6189713;28;19940;-55
2022/05/08 00:11:22;;;;;;;;;;;23.10;45.00;;;;;;6192307;28;19933;-51
2022/05/08 00:14:24;;;;;;;;;;;22.90;44.80;;;;;;6188244;28;21340;-56
2022/05/08 00:17:25;;;;;;;;;;;23.20;44.90;;;;;;6153549;28;19998;-53
2022/05/08 00:20:27;;;;;;;;;;;22.90;44.80;;;;;;6189899;28;19925;-55
2022/05/08 00:23:28;;;;;;;;;;;22.90;44.80;;;;;;6190084;28;21110;-53
2022/05/08 00:26:30;;;;;;;;;;;23.00;44.80;;;;;;6176705;28;19929;-55
2022/05/08 00:29:31;;;;;;;;;;;22.60;44.60;;;;;;6188483;28;20635;-55
2022/05/08 00:32:33;;;;;;;;;;;23.10;44.80;;;;;;6187852;28;19924;-54
2022/05/08 00:35:34;;;;;;;;;;;23.10;44.90;;;;;;6185998;28;19929;-52
2022/05/08 00:38:35;;;;;;;;;;;22.80;44.70;;;;;;6188969;28;19928;-51
2022/05/08 00:41:37;;;;;;;;;;;23.30;45.00;;;;;;6191154;28;20044;-55
2022/05/08 00:44:39;;;;;;;;;;;23.00;44.80;;;;;;6185144;28;19930;-54
2022/05/08 00:47:40;;;;;;;;;;;23.00;44.80;;;;;;6177140;28;20726;-50
2022/05/08 00:50:42;;;;;;;;;;;23.00;44.80;;;;;;6187650;28;19925;-54
2022/05/08 00:53:44;;;;;;;;;;;23.10;44.90;;;;;;6190754;28;19921;-53
2022/05/08 00:56:46;;;;;;;;;;;23.10;44.90;;;;;;6175358;28;20031;-52
2022/05/08 00:59:47;;;;;;;;;;;23.00;44.80;;;;;;6188171;28;20798;-53
2022/05/08 01:02:49;;;;;;;;;;;23.00;44.80;;;;;;6186716;28;19935;-54
2022/05/08 01:05:52;;;;;;;;;;;23.10;44.90;;;;;;6185311;28;19933;-52
2022/05/08 01:08:54;;;;;;;;;;;22.80;45.40;;;;;;6191750;28;20048;-55
2022/05/08 01:11:56;;;;;;;;;;;23.20;45.00;;;;;;6171061;28;19928;-51
2022/05/08 01:15:11;;;;;;;;;;;22.50;44.60;;;;;;6183335;28;19929;-52
2022/05/08 01:18:13;;;;;;;;;;;23.00;44.90;;;;;;6183286;28;19929;-53
2022/05/08 01:21:15;;;;;;;;;;;22.70;44.70;;;;;;6169154;28;19928;-51
2022/05/08 01:24:22;;;;;;;;;;;23.00;44.90;;;;;;6168685;28;19999;-55
2022/05/08 01:27:23;;;;;;;;;;;23.20;45.00;;;;;;6179741;28;19993;-52
2022/05/08 01:30:25;;;;;;;;;;;23.00;44.90;;;;;;6185233;28;19929;-51
2022/05/08 01:33:26;;;;;;;;;;;23.00;44.90;;;;;;6185017;28;19972;-56
2022/05/08 01:36:28;;;;;;;;;;;22.90;44.90;;;;;;6166628;28;19925;-50
2022/05/08 01:39:30;;;;;;;;;;;22.80;44.90;;;;;;6186943;28;20077;-53
2022/05/08 01:42:31;;;;;;;;;;;22.80;44.90;;;;;;6188722;28;19929;-54
2022/05/08 01:45:33;;;;;;;;;;;22.60;44.80;;;;;;6181467;28;20566;-54
2022/05/08 01:48:34;;;;;;;;;;;23.10;45.00;;;;;;6187894;28;19972;-54
2022/05/08 01:51:36;;;;;;;;;;;22.50;44.80;;;;;;6187260;28;19967;-53
2022/05/08 01:54:38;;;;;;;;;;;22.80;44.90;;;;;;6180757;28;22149;-54
2022/05/08 01:57:39;;;;;;;;;;;23.10;45.10;;;;;;6176386;28;20003;-53
2022/05/08 02:00:40;;;;;;;;;;;23.00;45.10;;;;;;6184533;28;19929;-52
2022/05/08 02:03:44;;;;;;;;;;;22.90;45.00;;;;;;6184163;28;19921;-52
2022/05/08 02:06:45;;;;;;;;;;;22.90;45.00;;;;;;6178953;28;19929;-51
2022/05/08 02:09:47;;;;;;;;;;;22.50;44.90;;;;;;6184075;28;19953;-54
2022/05/08 02:12:49;;;;;;;;;;;22.90;45.00;;;;;;6181577;28;19929;-53
2022/05/08 02:15:52;;;;;;;;;;;22.60;44.90;;;;;;6174758;28;20996;-55
2022/05/08 02:18:53;;;;;;;;;;;22.40;44.80;;;;;;6179025;28;20002;-53
2022/05/08 02:21:55;;;;;;;;;;;22.70;45.00;;;;;;6189004;28;20120;-54
2022/05/08 02:24:57;;;;;;;;;;;22.80;45.60;;;;;;6181541;28;20488;-54
2022/05/08 02:27:58;;;;;;;;;;;22.90;45.00;;;;;;6187882;28;20044;-53
2022/05/08 02:31:00;;;;;;;;;;;22.70;45.00;;;;;;6187176;28;19935;-53
2022/05/08 02:34:01;;;;;;;;;;;22.60;44.90;;;;;;6183444;28;20777;-52
2022/05/08 02:37:03;;;;;;;;;;;23.30;45.30;;;;;;6181841;28;20047;-53
2022/05/08 02:40:06;;;;;;;;;;;22.50;44.90;;;;;;6183613;28;19929;-53
2022/05/08 02:43:07;;;;;;;;;;;22.50;44.80;;;;;;6184919;28;20036;-55
2022/05/08 02:46:08;;;;;;;;;;;22.40;44.80;;;;;;6184206;28;20103;-53
2022/05/08 02:49:10;;;;;;;;;;;22.70;44.90;;;;;;6188846;28;19936;-53
2022/05/08 02:52:11;;;;;;;;;;;22.50;44.80;;;;;;6189370;28;19971;-54
2022/05/08 02:58:32;;;;;;;;;;;22.80;44.90;;;;;;6166223;28;20824;-53
2022/05/08 03:01:34;;;;;;;;;;;22.90;45.00;;;;;;6186347;28;19972;-55
2022/05/08 03:04:35;;;;;;;;;;;22.60;44.90;;;;;;6176543;28;19929;-53
2022/05/08 03:07:37;;;;;;;;;;;22.90;45.00;;;;;;6173636;28;20004;-54
2022/05/08 03:13:53;;;;;;;;;;;22.90;45.00;;;;;;6185263;28;19929;-53
2022/05/08 03:16:54;;;;;;;;;;;22.80;45.00;;;;;;6181053;28;19929;-56
2022/05/08 03:19:55;;;;;;;;;;;22.90;45.10;;;;;;6180774;28;19929;-53
2022/05/08 03:22:57;;;;;;;;;;;22.40;44.80;;;;;;6181025;28;19929;-54
2022/05/08 03:25:59;;;;;;;;;;;22.80;45.10;;;;;;6173074;28;19947;-52
2022/05/08 03:29:01;;;;;;;;;;;22.80;45.00;;;;;;6191431;28;19936;-53
2022/05/08 03:32:03;;;;;;;;;;;22.60;44.90;;;;;;6180663;28;20100;-55
2022/05/08 03:35:06;;;;;;;;;;;22.80;45.00;;;;;;6184746;28;19929;-53
2022/05/08 03:38:07;;;;;;;;;;;22.60;44.90;;;;;;6187386;28;19935;-55
2022/05/08 03:41:09;;;;;;;;;;;22.30;44.80;;;;;;6190764;28;20044;-54
2022/05/08 03:44:11;;;;;;;;;;;22.70;45.00;;;;;;6188469;28;20048;-53
2022/05/08 03:47:12;;;;;;;;;;;22.70;45.10;;;;;;6185317;28;19928;-53
2022/05/08 03:50:15;;;;;;;;;;;22.60;45.00;;;;;;6191009;28;19929;-56
2022/05/08 03:53:16;;;;;;;;;;;22.50;45.00;;;;;;6190426;28;19929;-54
2022/05/08 03:56:18;;;;;;;;;;;22.70;45.00;;;;;;6185026;28;19927;-53
2022/05/08 03:59:19;;;;;;;;;;;22.80;45.10;;;;;;6189091;28;19930;-53
2022/05/08 04:02:21;;;;;;;;;;;22.60;45.10;;;;;;6190258;28;20907;-53
2022/05/08 04:05:22;;;;;;;;;;;22.30;44.80;;;;;;6186333;28;19979;-50
2022/05/08 04:08:24;;;;;;;;;;;22.60;44.90;;;;;;6187899;28;19968;-53
2022/05/08 04:11:29;;;;;;;;;;;22.60;45.00;;;;;;6193070;28;19951;-52
2022/05/08 04:14:31;;;;;;;;;;;22.70;45.00;;;;;;6186471;28;19929;-53
2022/05/08 04:17:33;;;;;;;;;;;22.40;44.90;;;;;;6166729;28;20786;-55
2022/05/08 04:20:34;;;;;;;;;;;22.40;44.90;;;;;;6182409;28;19944;-52
2022/05/08 04:26:52;;;;;;;;;;;22.60;45.00;;;;;;6182880;28;19929;-54
2022/05/08 04:29:53;;;;;;;;;;;22.90;45.10;;;;;;6186697;28;20806;-56
2022/05/08 04:32:55;;;;;;;;;;;22.70;45.10;;;;;;6185944;28;19955;-52
2022/05/08 04:35:56;;;;;;;;;;;22.40;44.90;;;;;;6182008;28;20048;-53
2022/05/08 04:38:58;;;;;;;;;;;22.70;45.20;;;;;;6184304;28;20015;-53
2022/05/08 04:42:01;;;;;;;;;;;22.40;45.00;;;;;;6186369;28;20062;-53
2022/05/08 04:45:03;;;;;;;;;;;22.80;45.10;;;;;;6184351;28;19926;-49
2022/05/08 04:48:05;;;;;;;;;;;22.50;44.90;;;;;;6181085;28;20011;-54
2022/05/08 04:51:06;;;;;;;;;;;22.60;45.00;;;;;;6188952;28;20891;-53
2022/05/08 04:54:07;;;;;;;;;;;22.40;45.00;;;;;;6184736;28;19929;-56
2022/05/08 04:57:09;;;;;;;;;;;22.70;45.10;;;;;;6182367;28;19935;-51
2022/05/08 05:00:13;;;;;;;;;;;22.40;44.90;;;;;;6185495;28;19929;-53
2022/05/08 05:03:14;;;;;;;;;;;22.60;45.00;;;;;;6185151;28;20040;-52
2022/05/08 05:06:17;;;;;;;;;;;22.60;45.10;;;;;;6178411;28;19936;-53
2022/05/08 05:09:18;;;;;;;;;;;22.30;44.90;;;;;;6189237;28;20515;-54
2022/05/08 05:12:20;;;;;;;;;;;22.30;45.00;;;;;;6186017;28;19929;-51
2022/05/08 05:15:26;;;;;;;;;;;22.60;45.10;;;;;;6182444;28;20791;-53
2022/05/08 05:18:27;;;;;;;;;;;22.70;45.20;;;;;;6181165;28;20857;-50
2022/05/08 05:21:28;;;;;;;;;;;22.60;45.10;;;;;;6184738;28;19929;-52
2022/05/08 05:24:30;;;;;;;;;;;22.80;45.30;;;;;;6183270;28;20014;-50
2022/05/08 05:27:32;;;;;;;;;;;22.60;45.10;;;;;;6160361;28;19929;-55
2022/05/08 05:30:33;;;;;;;;;;;22.20;44.90;;;;;;6185712;28;20051;-52
2022/05/08 05:33:35;;;;;;;;;;;22.50;45.10;;;;;;6178095;28;19933;-52
2022/05/08 05:36:36;;;;;;;;;;;22.30;45.00;;;;;;6168449;28;19930;-53
2022/05/08 05:39:37;;;;;;;;;;;22.50;45.10;;;;;;6183762;28;19929;-54
2022/05/08 05:42:39;;;;;;;;;;;22.30;45.00;;;;;;6182722;28;19963;-53
2022/05/08 05:45:41;;;;;;;;;;;22.60;45.10;;;;;;6177434;28;19936;-52
2022/05/08 05:48:42;;;;;;;;;;;22.60;45.10;;;;;;6183411;28;19979;-53
2022/05/08 05:51:43;;;;;;;;;;;22.40;45.10;;;;;;6185921;28;19935;-53
2022/05/08 05:54:45;;;;;;;;;;;22.20;45.00;;;;;;6169264;28;19933;-52
2022/05/08 05:57:53;;;;;;;;;;;22.50;45.10;;;;;;6180752;28;19929;-54
2022/05/08 06:00:54;;;;;;;;;;;22.50;45.10;;;;;;6176034;28;19922;-53
2022/05/08 06:03:56;;;;;;;;;;;22.60;45.20;;;;;;6178864;28;20039;-54
2022/05/08 06:06:57;;;;;;;;;;;22.50;45.00;;;;;;6177900;28;19922;-52
2022/05/08 06:09:59;;;;;;;;;;;22.30;45.10;;;;;;6184103;28;19932;-53
2022/05/08 06:13:01;;;;;;;;;;;22.30;45.00;;;;;;6184859;28;20768;-53
2022/05/08 06:16:03;;;;;;;;;;;22.60;45.10;;;;;;6180341;28;20872;-55
2022/05/08 06:19:04;;;;;;;;;;;22.40;45.00;;;;;;6174756;28;19929;-53
2022/05/08 06:22:06;;;;;;;;;;;22.60;45.20;;;;;;6185323;28;20321;-52
2022/05/08 06:25:07;;;;;;;;;;;22.20;45.00;;;;;;6181517;28;20092;-56
2022/05/08 06:28:09;;;;;;;;;;;22.60;45.10;;;;;;6184600;28;19929;-52
2022/05/08 06:31:11;;;;;;;;;;;22.50;45.10;;;;;;6187464;28;19929;-55
2022/05/08 06:34:12;;;;;;;;;;;22.50;45.20;;;;;;6180601;28;20017;-53
2022/05/08 06:37:13;;;;;;;;;;;22.20;45.00;;;;;;6181646;28;20053;-54
2022/05/08 06:40:15;;;;;;;;;;;22.40;45.10;;;;;;6184525;28;20049;-53
2022/05/08 06:43:17;;;;;;;;;;;22.20;45.10;;;;;;6186255;28;19929;-50
2022/05/08 06:46:18;;;;;;;;;;;22.60;45.20;;;;;;6176694;28;20026;-51
2022/05/08 06:49:20;;;;;;;;;;;22.50;45.10;;;;;;6187364;28;19929;-55
2022/05/08 06:52:22;;;;;;;;;;;22.50;45.10;;;;;;6185008;28;19929;-52
2022/05/08 06:55:23;;;;;;;;;;;22.60;45.20;;;;;;6177493;28;20857;-55
2022/05/08 06:58:25;;;;;;;;;;;22.70;45.30;;;;;;6184857;28;19934;-51
2022/05/08 07:01:34;;;;;;;;;;;22.20;45.00;;;;;;6187047;28;19960;-52
2022/05/08 07:04:35;;;;;;;;;;;22.40;45.10;;;;;;6181505;28;20041;-53
2022/05/08 07:07:37;;;;;;;;;;;22.60;45.30;;;;;;6178310;28;20051;-54
2022/05/08 07:10:38;;;;;;;;;;;22.40;45.10;;;;;;6186125;28;19983;-51
2022/05/08 07:13:40;;;;;;;;;;;22.80;45.30;;;;;;6167707;28;19929;-54
2022/05/08 07:16:42;;;;;;;;;;;22.50;45.10;;;;;;6171380;28;20047;-51
2022/05/08 07:19:43;;;;;;;;;;;22.20;45.00;;;;;;6180724;28;20031;-53
2022/05/08 07:22:44;;;;;;;;;;;22.50;45.20;;;;;;6185995;28;20041;-55
2022/05/08 07:25:46;;;;;;;;;;;22.40;45.10;;;;;;6172201;28;19925;-55
2022/05/08 07:28:48;;;;;;;;;;;22.40;45.10;;;;;;6184648;28;20063;-52
2022/05/08 07:31:49;;;;;;;;;;;22.40;45.10;;;;;;6182569;28;19941;-51
2022/05/08 07:38:05;;;;;;;;;;;22.20;45.00;;;;;;6184438;28;19930;-54
2022/05/08 07:41:07;;;;;;;;;;;22.60;45.30;;;;;;6181050;28;19936;-51
2022/05/08 07:44:09;;;;;;;;;;;22.70;45.20;;;;;;6179368;28;19929;-52
2022/05/08 07:47:10;;;;;;;;;;;22.70;45.20;;;;;;6178457;28;21390;-51
2022/05/08 07:50:12;;;;;;;;;;;22.20;45.00;;;;;;6186642;28;19933;-52
2022/05/08 07:53:16;;;;;;;;;;;22.40;45.10;;;;;;6182616;28;19936;-54
2022/05/08 07:56:17;;;;;;;;;;;22.50;45.20;;;;;;6177828;28;19935;-54
2022/05/08 07:59:19;;;;;;;;;;;22.60;45.20;;;;;;6173841;28;19925;-52
2022/05/08 08:02:21;;;;;;;;;;;22.20;45.00;;;;;;6182288;28;20918;-54
2022/05/08 08:05:22;;;;;;;;;;;22.80;45.30;;;;;;6177400;28;19936;-54
2022/05/08 08:08:25;;;;;;;;;;;22.30;45.20;;;;;;6180695;28;19929;-52
2022/05/08 08:11:27;;;;;;;;;;;22.60;45.20;;;;;;6182289;28;19935;-52
2022/05/08 08:14:29;;;;;;;;;;;22.60;45.30;;;;;;6184317;28;20773;-51
2022/05/08 08:17:50;;;;;;;;;;;22.70;45.30;;;;;;6168654;28;20554;-55
2022/05/08 08:20:52;;;;;;;;;;;22.50;45.20;;;;;;6187044;28;19921;-54
2022/05/08 08:23:53;;;;;;;;;;;22.60;45.30;;;;;;6182465;28;20004;-52
2022/05/08 08:26:55;;;;;;;;;;;22.50;45.20;;;;;;6181423;28;19927;-54
2022/05/08 08:29:57;;;;;;;;;;;22.70;45.30;;;;;;6185128;28;19933;-54
2022/05/08 08:33:01;;;;;;;;;;;22.30;45.10;;;;;;6182090;28;19968;-51
2022/05/08 08:36:05;;;;;;;;;;;22.40;45.10;;;;;;6180136;28;19932;-54
2022/05/08 08:39:07;;;;;;;;;;;22.50;45.20;;;;;;6184927;28;19929;-55
2022/05/08 08:42:13;;;;;;;;;;;22.70;45.20;;;;;;6184939;28;20057;-54
2022/05/08 08:48:34;;;;;;;;;;;22.60;45.20;;;;;;6180652;28;19937;-56
2022/05/08 08:51:36;;;;;;;;;;;22.60;45.30;;;;;;6185436;28;19972;-52
2022/05/08 08:54:37;;;;;;;;;;;22.40;45.00;;;;;;6182432;28;20738;-53
2022/05/08 08:57:38;;;;;;;;;;;22.90;45.30;;;;;;6182811;28;20008;-52
2022/05/08 09:00:40;;;;;;;;;;;22.60;45.10;;;;;;6183462;28;19921;-53
2022/05/08 09:03:42;;;;;;;;;;;22.70;45.20;;;;;;6186121;28;19976;-53
2022/05/08 09:06:45;;;;;;;;;;;22.50;45.10;;;;;;6182370;28;20051;-54
2022/05/08 09:09:46;;;;;;;;;;;22.80;45.20;;;;;;6183431;28;20729;-52
2022/05/08 09:13:02;;;;;;;;;;;23.10;45.40;;;;;;6185175;28;19929;-52
2022/05/08 09:16:11;;;;;;;;;;;22.80;45.20;;;;;;6170094;28;19935;-54
2022/05/08 09:19:13;;;;;;;;;;;22.60;45.10;;;;;;6183254;28;19937;-52
2022/05/08 09:22:17;;;;;;;;;;;22.60;45.10;;;;;;6180503;28;19966;-54
2022/05/08 09:25:19;;;;;;;;;;;22.70;45.10;;;;;;6158021;28;19971;-52
2022/05/08 09:28:21;;;;;;;;;;;22.70;45.10;;;;;;6172697;28;20118;-54
2022/05/08 09:31:23;;;;;;;;;;;22.80;45.10;;;;;;6163798;28;19921;-55
2022/05/08 09:34:24;;;;;;;;;;;23.00;45.20;;;;;;6176419;28;20007;-52
2022/05/08 09:37:27;;;;;;;;;;;23.00;45.20;;;;;;6172707;28;20456;-53
2022/05/08 09:40:29;;;;;;;;;;;23.00;45.10;;;;;;6177691;28;20385;-54
2022/05/08 09:43:30;;;;;;;;;;;23.30;45.30;;;;;;6173444;28;19936;-54
2022/05/08 09:46:35;;;;;;;;;;;22.60;45.00;;;;;;6148517;28;20712;-53
2022/05/08 09:49:37;;;;;;;;;;;22.90;45.10;;;;;;6156764;28;20018;-54
2022/05/08 09:52:39;;;;;;;;;;;22.90;45.10;;;;;;6173865;28;19929;-54
2022/05/08 09:55:45;;;;;;;;;;;22.80;45.10;;;;;;6165013;28;19976;-54
2022/05/08 09:58:47;;;;;;;;;;;22.90;45.10;;;;;;6173612;28;20357;-52
2022/05/08 10:01:50;;;;;;;;;;;23.00;45.20;;;;;;6174700;28;20391;-55
2022/05/08 10:04:52;;;;;;;;;;;22.80;45.10;;;;;;6170632;28;19929;-52
2022/05/08 10:07:53;;;;;;;;;;;23.00;45.30;;;;;;6172009;28;19952;-52
2022/05/08 10:14:24;;;;;;;;;;;23.10;45.20;;;;;;6180343;28;20043;-52
2022/05/08 10:17:28;;;;;;;;;;;22.80;45.10;;;;;;6178359;28;19971;-52
2022/05/08 10:20:41;;;;;;;;;;;23.00;45.20;;;;;;6181232;28;20051;-54
2022/05/08 10:23:45;;;;;;;;;;;23.10;45.10;;;;;;6180436;28;19984;-52
2022/05/08 10:27:04;;;;;;;;;;;23.10;45.30;;;;;;6158996;28;20012;-50
2022/05/08 10:30:20;;;;;;;;;;;22.70;45.00;;;;;;6170232;28;20031;-55
2022/05/08 10:33:22;;;;;;;;;;;23.10;45.20;;;;;;6165343;28;19930;-56
2022/05/08 10:36:23;;;;;;;;;;;22.90;45.10;;;;;;6177986;28;19929;-51
2022/05/08 10:39:35;;;;;;;;;;;23.10;45.20;;;;;;6166880;28;19929;-53
2022/05/08 10:42:42;;;;;;;;;;;22.90;45.10;;;;;;6186163;28;19968;-53
2022/05/08 10:45:44;;;;;;;;;;;23.30;45.30;;;;;;6178530;28;19929;-52
2022/05/08 10:48:46;;;;;;;;;;;22.90;45.10;;;;;;6182968;28;19940;-53
2022/05/08 10:51:48;;;;;;;;;;;23.20;45.40;;;;;;6168445;28;19920;-54
2022/05/08 10:54:56;;;;;;;;;;;23.10;45.20;;;;;;6180306;28;20801;-53
2022/05/08 10:57:58;;;;;;;;;;;23.30;45.30;;;;;;6182941;28;20138;-53
2022/05/08 11:01:02;;;;;;;;;;;22.80;45.00;;;;;;6165931;28;19964;-55
2022/05/08 11:04:11;;;;;;;;;;;23.30;45.20;;;;;;6180487;28;19936;-55
2022/05/08 11:07:13;;;;;;;;;;;23.20;45.10;;;;;;6177354;28;20069;-53
2022/05/08 11:10:15;;;;;;;;;;;23.90;45.50;;;;;;6185868;28;19922;-54
2022/05/08 11:13:17;;;;;;;;;;;23.30;45.30;;;;;;6184597;28;19931;-53
2022/05/08 11:16:33;;;;;;;;;;;23.20;45.20;;;;;;6173383;28;19929;-53
2022/05/08 11:19:50;;;;;;;;;;;23.20;45.20;;;;;;6186452;28;20011;-56
2022/05/08 11:22:55;;;;;;;;;;;23.30;45.80;;;;;;6179081;28;20863;-55
2022/05/08 11:25:57;;;;;;;;;;;23.30;45.20;;;;;;6176051;28;20720;-51
2022/05/08 11:29:00;;;;;;;;;;;23.70;45.40;;;;;;6179934;28;21464;-52
2022/05/08 11:38:39;;;;;;;;;;;23.30;45.10;;;;;;6178497;28;20048;-53
2022/05/08 11:41:44;;;;;;;;;;;23.30;45.20;;;;;;6186647;28;19940;-54
2022/05/08 11:44:45;;;;;;;;;;;23.20;45.20;;;;;;6167515;28;19932;-54
2022/05/08 11:47:49;;;;;;;;;;;23.30;45.10;;;;;;6184887;28;20676;-54
2022/05/08 11:50:54;;;;;;;;;;;23.30;45.10;;;;;;6186276;28;20031;-56
2022/05/08 11:53:55;;;;;;;;;;;23.20;45.00;;;;;;6186124;28;19929;-52
2022/05/08 11:57:12;;;;;;;;;;;23.40;45.10;;;;;;6188863;28;19928;-51
2022/05/08 12:00:14;;;;;;;;;;;23.40;45.10;;;;;;6190348;28;19929;-51
2022/05/08 12:03:26;;;;;;;;;;;23.40;45.20;;;;;;6187290;28;20882;-55
2022/05/08 12:06:28;;;;;;;;;;;23.40;45.10;;;;;;6187449;28;20953;-53
2022/05/08 12:09:30;;;;;;;;;;;23.70;45.30;;;;;;6186319;28;20059;-54
2022/05/08 12:12:33;;;;;;;;;;;23.30;45.00;;;;;;6172101;28;20011;-53
2022/05/08 12:15:34;;;;;;;;;;;23.40;45.10;;;;;;6173194;28;19930;-53
2022/05/08 12:18:36;;;;;;;;;;;23.60;45.20;;;;;;6183769;28;19931;-51
2022/05/08 12:21:38;;;;;;;;;;;23.60;45.30;;;;;;6179973;28;19929;-52
2022/05/08 12:24:39;;;;;;;;;;;23.60;45.30;;;;;;6185365;28;19921;-52
2022/05/08 12:27:41;;;;;;;;;;;23.60;45.40;;;;;;6175485;28;20037;-55
2022/05/08 12:30:44;;;;;;;;;;;23.60;45.40;;;;;;6176250;28;21147;-53
2022/05/08 12:33:46;;;;;;;;;;;23.30;45.30;;;;;;6182103;28;19937;-51
2022/05/08 12:36:48;;;;;;;;;;;23.50;45.40;;;;;;6152889;28;19925;-55
2022/05/08 12:39:50;;;;;;;;;;;23.80;45.60;;;;;;6176758;28;20093;-53
2022/05/08 12:42:51;;;;;;;;;;;23.50;45.50;;;;;;6179505;28;19936;-53
2022/05/08 12:45:53;;;;;;;;;;;23.50;45.60;;;;;;6169972;28;21034;-51
2022/05/08 12:49:01;;;;;;;;;;;23.30;45.40;;;;;;6173359;28;20321;-53
2022/05/08 12:52:04;;;;;;;;;;;23.60;45.60;;;;;;6184093;28;21133;-53
2022/05/08 12:55:06;;;;;;;;;;;23.60;45.60;;;;;;6174870;28;19932;-49
2022/05/08 13:01:23;;;;;;;;;;;23.50;45.50;;;;;;6183828;28;19929;-55
2022/05/08 13:04:24;;;;;;;;;;;23.60;45.60;;;;;;6179733;28;20124;-54
2022/05/08 13:07:26;;;;;;;;;;;23.60;45.50;;;;;;6180717;28;20107;-53
2022/05/08 13:10:28;;;;;;;;;;;23.50;45.50;;;;;;6179294;28;19935;-55
2022/05/08 13:13:37;;;;;;;;;;;23.30;45.40;;;;;;6177060;28;19936;-54
2022/05/08 13:16:38;;;;;;;;;;;23.40;45.50;;;;;;6172917;28;19929;-53
2022/05/08 13:19:40;;;;;;;;;;;23.70;45.60;;;;;;6177065;28;20919;-53
2022/05/08 13:22:42;;;;;;;;;;;23.60;45.50;;;;;;6177532;28;19929;-54
2022/05/08 13:25:44;;;;;;;;;;;23.70;45.60;;;;;;6173150;28;19929;-52
2022/05/08 13:28:45;;;;;;;;;;;23.60;45.50;;;;;;6159972;28;19932;-53
2022/05/08 13:31:47;;;;;;;;;;;23.70;45.60;;;;;;6177973;28;19929;-54
2022/05/08 13:34:48;;;;;;;;;;;23.50;45.50;;;;;;6178199;28;19929;-52
2022/05/08 13:37:50;;;;;;;;;;;23.70;45.60;;;;;;6179241;28;20711;-55
2022/05/08 13:40:52;;;;;;;;;;;23.70;45.60;;;;;;6180711;28;20075;-55
2022/05/08 13:43:55;;;;;;;;;;;23.60;45.50;;;;;;6177687;28;19936;-51
2022/05/08 13:46:58;;;;;;;;;;;23.70;45.60;;;;;;6173147;28;19930;-54
2022/05/08 13:50:03;;;;;;;;;;;23.50;45.50;;;;;;6175645;28;19931;-52
2022/05/08 13:53:08;;;;;;;;;;;23.60;45.50;;;;;;6180253;28;21752;-54
2022/05/08 13:56:09;;;;;;;;;;;23.80;45.60;;;;;;6174123;28;19929;-56
2022/05/08 13:59:11;;;;;;;;;;;23.60;45.50;;;;;;6176370;28;20071;-52
2022/05/08 14:02:14;;;;;;;;;;;23.30;45.40;;;;;;6174655;28;19929;-52
2022/05/08 14:05:16;;;;;;;;;;;23.70;45.60;;;;;;6176064;28;20052;-53
2022/05/08 14:08:18;;;;;;;;;;;23.80;45.60;;;;;;6180570;28;20028;-55
2022/05/08 14:11:21;;;;;;;;;;;23.50;45.50;;;;;;6163467;28;19975;-55
2022/05/08 14:14:25;;;;;;;;;;;23.70;45.60;;;;;;6174219;28;21526;-50
2022/05/08 14:17:33;;;;;;;;;;;23.60;45.50;;;;;;6174462;28;19929;-57
2022/05/08 14:20:35;;;;;;;;;;;23.50;45.40;;;;;;6177966;28;19936;-56
2022/05/08 14:23:37;;;;;;;;;;;23.80;45.60;;;;;;6178269;28;19928;-50
2022/05/08 14:26:39;;;;;;;;;;;23.90;45.60;;;;;;6158989;28;19929;-55
2022/05/08 14:29:44;;;;;;;;;;;23.60;45.50;;;;;;6182536;28;19935;-49
2022/05/08 14:36:04;;;;;;;;;;;23.70;45.50;;;;;;6176654;28;19928;-55
2022/05/08 14:39:06;;;;;;;;;;;23.50;45.40;;;;;;6180468;28;19925;-55
2022/05/08 14:42:07;;;;;;;;;;;23.80;45.50;;;;;;6179388;28;19928;-55
2022/05/08 14:45:09;;;;;;;;;;;23.80;45.50;;;;;;6174921;28;21123;-53
2022/05/08 14:48:11;;;;;;;;;;;23.90;45.60;;;;;;6178574;28;20744;-53
2022/05/08 14:51:12;;;;;;;;;;;23.80;45.60;;;;;;6179431;28;19925;-54
2022/05/08 14:54:14;;;;;;;;;;;23.80;45.60;;;;;;6172709;28;20824;-53
2022/05/08 14:57:15;;;;;;;;;;;23.70;45.50;;;;;;6175218;28;19960;-56
2022/05/08 15:00:17;;;;;;;;;;;23.70;45.70;;;;;;6175344;28;19929;-55
2022/05/08 15:03:18;;;;;;;;;;;23.70;45.60;;;;;;6175286;28;20047;-54
2022/05/08 15:06:21;;;;;;;;;;;23.40;45.40;;;;;;6171137;28;19929;-53
2022/05/08 15:09:24;;;;;;;;;;;23.70;46.00;;;;;;6174058;28;19929;-54
2022/05/08 15:12:25;;;;;;;;;;;23.50;45.50;;;;;;6180645;28;20032;-55
2022/05/08 15:15:27;;;;;;;;;;;23.80;45.60;;;;;;6170258;28;20960;-52
2022/05/08 15:21:43;;;;;;;;;;;23.70;45.50;;;;;;6176830;28;19936;-53
2022/05/08 15:24:45;;;;;;;;;;;23.90;45.70;;;;;;6171411;28;21209;-51
2022/05/08 15:27:46;;;;;;;;;;;23.70;45.60;;;;;;6175317;28;20048;-55
2022/05/08 15:30:47;;;;;;;;;;;23.60;45.60;;;;;;6175576;28;19929;-52
2022/05/08 15:33:49;;;;;;;;;;;23.70;45.80;;;;;;6178606;28;19935;-53
2022/05/08 15:36:51;;;;;;;;;;;23.60;45.70;;;;;;6178215;28;20063;-53
2022/05/08 15:39:53;;;;;;;;;;;23.60;45.70;;;;;;6182175;28;19925;-57
2022/05/08 15:42:54;;;;;;;;;;;23.60;45.70;;;;;;6177529;28;19935;-54
2022/05/08 15:45:56;;;;;;;;;;;23.70;45.80;;;;;;6169689;28;19936;-52
2022/05/08 15:48:57;;;;;;;;;;;23.80;45.80;;;;;;6176939;28;19929;-52
2022/05/08 15:52:03;;;;;;;;;;;23.70;45.70;;;;;;6175716;28;19933;-56
2022/05/08 15:55:06;;;;;;;;;;;23.70;45.70;;;;;;6175401;28;19935;-53
2022/05/08 15:58:08;;;;;;;;;;;23.80;45.70;;;;;;6162931;28;19929;-53
2022/05/08 16:01:09;;;;;;;;;;;23.70;45.60;;;;;;6173229;28;19961;-52
2022/05/08 16:04:11;;;;;;;;;;;23.60;45.60;;;;;;6173228;28;19925;-51
2022/05/08 16:07:13;;;;;;;;;;;23.70;45.70;;;;;;6179076;28;19929;-52
2022/05/08 16:10:15;;;;;;;;;;;23.60;45.60;;;;;;6175995;28;19966;-51
2022/05/08 16:26:21;;;;;;;;;;;23.70;45.50;;;;;;6160946;28;19937;-54
2022/05/08 16:29:23;;;;;;;;;;;23.80;45.70;;;;;;6181033;28;19930;-55
2022/05/08 16:32:24;;;;;;;;;;;23.90;45.70;;;;;;6169838;28;19929;-55
2022/05/08 16:35:25;;;;;;;;;;;23.60;45.70;;;;;;6168278;28;19925;-53
2022/05/08 16:38:27;;;;;;;;;;;23.50;45.60;;;;;;6173406;28;19929;-54
2022/05/08 16:41:29;;;;;;;;;;;23.70;45.80;;;;;;6178519;28;19929;-54
2022/05/08 16:44:30;;;;;;;;;;;23.50;45.70;;;;;;6167862;28;19936;-51
2022/05/08 16:47:32;;;;;;;;;;;23.60;45.80;;;;;;6174599;28;19925;-54
2022/05/08 16:50:33;;;;;;;;;;;23.60;45.80;;;;;;6179847;28;20052;-53
2022/05/08 16:53:40;;;;;;;;;;;23.50;45.80;;;;;;6175789;28;20014;-54
2022/05/08 16:56:44;;;;;;;;;;;23.40;45.80;;;;;;6174045;28;19929;-54
2022/05/08 16:59:46;;;;;;;;;;;23.60;45.90;;;;;;6172431;28;19929;-55
2022/05/08 17:02:47;;;;;;;;;;;23.40;45.80;;;;;;6176254;28;19929;-56
2022/05/08 17:05:48;;;;;;;;;;;23.60;45.90;;;;;;6175839;28;19929;-52
2022/05/08 17:08:52;;;;;;;;;;;23.60;45.90;;;;;;6179246;28;19937;-53
2022/05/08 17:11:54;;;;;;;;;;;23.60;45.90;;;;;;6176980;28;20782;-54
2022/05/08 17:14:55;;;;;;;;;;;23.40;45.80;;;;;;6175545;28;19933;-55
2022/05/08 17:17:57;;;;;;;;;;;23.60;45.90;;;;;;6175111;28;19929;-52
2022/05/08 17:20:58;;;;;;;;;;;23.40;45.80;;;;;;6179300;28;19929;-56
2022/05/08 17:24:00;;;;;;;;;;;23.60;46.00;;;;;;6173592;28;19932;-53
2022/05/08 17:30:18;;;;;;;;;;;23.60;46.00;;;;;;6177938;28;20817;-52
2022/05/08 17:33:19;;;;;;;;;;;23.60;46.00;;;;;;6177744;28;20729;-55
2022/05/08 17:36:21;;;;;;;;;;;23.40;45.90;;;;;;6174712;28;20798;-52
2022/05/08 17:39:22;;;;;;;;;;;23.70;46.10;;;;;;6177782;28;20008;-54
2022/05/08 17:42:26;;;;;;;;;;;23.30;45.90;;;;;;6178775;28;19971;-52
2022/05/08 17:45:27;;;;;;;;;;;23.60;46.00;;;;;;6172105;28;19928;-54
2022/05/08 17:48:28;;;;;;;;;;;23.70;45.70;;;;;;6178983;28;20063;-53
2022/05/08 17:51:32;;;;;;;;;;;23.40;45.90;;;;;;6183134;28;19932;-52
2022/05/08 17:54:35;;;;;;;;;;;23.70;46.10;;;;;;6176784;28;19936;-54
2022/05/08 17:57:37;;;;;;;;;;;23.40;45.90;;;;;;6176016;28;19929;-56
2022/05/08 18:00:39;;;;;;;;;;;23.70;46.10;;;;;;6179624;28;19929;-53
2022/05/08 18:06:53;;;;;;;;;;;23.70;46.10;;;;;;6177381;28;20064;-52
2022/05/08 18:09:54;;;;;;;;;;;23.70;46.20;;;;;;6176384;28;19930;-54
2022/05/08 18:12:58;;;;;;;;;;;23.60;46.20;;;;;;6176531;28;19928;-51
2022/05/08 18:16:01;;;;;;;;;;;23.60;46.10;;;;;;6165577;28;19936;-53
2022/05/08 18:19:07;;;;;;;;;;;23.70;46.20;;;;;;6171182;28;20000;-52
2022/05/08 18:22:10;;;;;;;;;;;23.70;46.20;;;;;;6179556;28;19951;-52
2022/05/08 18:25:12;;;;;;;;;;;23.50;46.10;;;;;;6174752;28;20756;-54
2022/05/08 18:28:14;;;;;;;;;;;23.40;46.10;;;;;;6177373;28;19929;-51
2022/05/08 18:31:15;;;;;;;;;;;23.70;46.20;;;;;;6176670;28;19935;-52
2022/05/08 18:34:17;;;;;;;;;;;23.70;46.20;;;;;;6175491;28;19936;-53
2022/05/08 18:37:19;;;;;;;;;;;23.80;46.30;;;;;;6159998;28;19928;-53